Time;durP1;ratioP1;P1;durP2;ratioP2;P2;SDS_P1;SDS_P2;PMS_P1;PMS_P2;Temp;Humidity;BMP_temperature;BMP_pressure;BME280_temperature;BME280_humidity;BME280_pressure;Samples;Min_cycle;Max_cycle;Signal;HPM_P1;HPM_P2
2022/07/14 00:00:09;;;;;;;;;;;;;;;23.34;52.65;101232.97;4917092;29;5382;-63
2022/07/14 00:02:36;;;;;;;;;;;;;;;23.33;52.51;101234.34;4919255;29;4286;-63
2022/07/14 00:05:06;;;;;;;;;;;;;;;23.33;52.42;101242.28;4916633;29;4204;-63
2022/07/14 00:07:32;;;;;;;;;;;;;;;23.34;52.43;101238.75;4918648;29;4131;-63
2022/07/14 00:09:59;;;;;;;;;;;;;;;23.35;52.43;101240.22;4915768;29;4341;-63
2022/07/14 00:12:25;;;;;;;;;;;;;;;23.34;52.52;101244.53;4915576;29;4242;-64
2022/07/14 00:14:51;;;;;;;;;;;;;;;23.34;52.43;101250.31;4914903;29;5260;-63
2022/07/14 00:17:18;;;;;;;;;;;;;;;23.34;52.48;101249.53;4920267;29;4215;-63
2022/07/14 00:19:53;;;;;;;;;;;;;;;23.34;52.53;101238.75;4920811;29;5409;-63
2022/07/14 00:22:19;;;;;;;;;;;;;;;23.32;52.70;101235.00;4919734;29;4125;-63
2022/07/14 00:24:52;;;;;;;;;;;;;;;23.33;52.44;101240.13;4919171;29;4424;-64
2022/07/14 00:27:19;;;;;;;;;;;;;;;23.34;52.67;101256.09;4922788;29;4300;-63
2022/07/14 00:29:45;;;;;;;;;;;;;;;23.33;52.41;101250.94;4918326;29;5503;-63
2022/07/14 00:32:11;;;;;;;;;;;;;;;23.33;52.71;101248.81;4919835;29;4166;-63
2022/07/14 00:34:38;;;;;;;;;;;;;;;23.33;52.73;101254.59;4919600;29;4205;-63
2022/07/14 00:37:05;;;;;;;;;;;;;;;23.33;52.42;101251.69;4919740;29;5261;-63
2022/07/14 00:39:54;;;;;;;;;;;;;;;23.32;52.50;101253.09;4904172;29;4424;-64
2022/07/14 00:42:37;;;;;;;;;;;;;;;23.33;52.62;101248.81;4919863;29;4352;-63
2022/07/14 00:45:08;;;;;;;;;;;;;;;23.31;52.43;101251.59;4921870;29;6396;-63
2022/07/14 00:47:34;;;;;;;;;;;;;;;23.33;52.45;101259.63;4902472;29;5113;-64
2022/07/14 00:50:00;;;;;;;;;;;;;;;23.33;52.51;101259.63;4919549;29;5274;-63
2022/07/14 00:52:29;;;;;;;;;;;;;;;23.33;52.67;101271.19;4916236;29;4192;-63
2022/07/14 00:54:55;;;;;;;;;;;;;;;23.31;52.57;101266.06;4917398;29;4355;-63
2022/07/14 00:57:22;;;;;;;;;;;;;;;23.31;52.54;101268.22;4910247;29;5298;-63
2022/07/14 00:59:48;;;;;;;;;;;;;;;23.31;52.66;101266.06;4904293;29;4252;-63
2022/07/14 01:02:15;;;;;;;;;;;;;;;23.31;52.51;101268.94;4921351;29;5519;-63
2022/07/14 01:04:41;;;;;;;;;;;;;;;23.31;52.81;101262.44;4917607;29;4402;-63
2022/07/14 01:07:08;;;;;;;;;;;;;;;23.31;52.70;101266.06;4919259;29;4175;-64
2022/07/14 01:09:34;;;;;;;;;;;;;;;23.29;52.55;101265.97;4919740;29;4261;-64
2022/07/14 01:12:01;;;;;;;;;;;;;;;23.28;52.46;101264.50;4920694;29;4201;-63
2022/07/14 01:14:27;;;;;;;;;;;;;;;23.30;52.83;101266.72;4903224;29;4273;-63
2022/07/14 01:16:55;;;;;;;;;;;;;;;23.30;52.56;101266.72;4921469;29;4203;-63
2022/07/14 01:19:22;;;;;;;;;;;;;;;23.30;52.48;101273.25;4897314;29;4302;-63
2022/07/14 01:21:49;;;;;;;;;;;;;;;23.29;52.55;101274.63;4917057;29;5301;-63
2022/07/14 01:24:16;;;;;;;;;;;;;;;23.29;52.54;101271.75;4921790;29;4293;-63
2022/07/14 01:26:43;;;;;;;;;;;;;;;23.29;52.59;101277.53;4903681;29;4087;-63
2022/07/14 01:29:09;;;;;;;;;;;;;;;23.28;52.60;101276.06;4913200;29;4196;-63
2022/07/14 01:31:37;;;;;;;;;;;;;;;23.29;52.81;101280.41;4912463;29;4264;-63
2022/07/14 01:34:03;;;;;;;;;;;;;;;23.29;52.54;101282.56;4898326;29;5365;-63
2022/07/14 01:36:30;;;;;;;;;;;;;;;23.28;52.75;101278.94;4921179;29;4206;-63
2022/07/14 01:38:57;;;;;;;;;;;;;;;23.30;52.56;101279.03;4917142;29;4220;-63
2022/07/14 01:41:23;;;;;;;;;;;;;;;23.29;52.42;101283.31;4917192;29;4111;-63
2022/07/14 01:43:50;;;;;;;;;;;;;;;23.28;52.58;101278.94;4905429;29;5423;-63
2022/07/14 01:46:16;;;;;;;;;;;;;;;23.28;52.52;101276.06;4908625;29;5395;-63
2022/07/14 01:48:43;;;;;;;;;;;;;;;23.29;52.68;101291.97;4920187;29;4318;-63
2022/07/14 01:51:09;;;;;;;;;;;;;;;23.28;52.50;101286.88;4915882;29;5540;-63
2022/07/14 01:53:36;;;;;;;;;;;;;;;23.28;52.84;101287.63;4919430;29;4244;-63
2022/07/14 01:56:03;;;;;;;;;;;;;;;23.29;52.49;101300.66;4902473;29;4190;-63
2022/07/14 01:58:30;;;;;;;;;;;;;;;23.28;52.58;101293.41;4903736;29;4264;-63
2022/07/14 02:03:45;;;;;;;;;;;;;;;23.28;52.68;101299.16;4902250;29;4259;-63
2022/07/14 02:06:12;;;;;;;;;;;;;;;23.27;52.61;101300.56;4920145;29;4221;-64
2022/07/14 02:08:38;;;;;;;;;;;;;;;23.28;52.69;101301.31;4903013;29;5246;-63
2022/07/14 02:13:50;;;;;;;;;;;;;;;23.31;52.55;101308.66;4900786;29;5466;-63
2022/07/14 02:16:17;;;;;;;;;;;;;;;23.30;52.39;101310.06;4903088;29;4359;-63
2022/07/14 02:18:45;;;;;;;;;;;;;;;23.27;52.65;101312.13;4900068;29;5499;-63
2022/07/14 02:21:12;;;;;;;;;;;;;;;23.27;52.54;101311.38;4920387;29;4286;-63
2022/07/14 02:23:39;;;;;;;;;;;;;;;23.27;52.50;101317.16;4901156;29;4204;-63
2022/07/14 02:26:12;;;;;;;;;;;;;;;23.27;52.54;101309.22;4919269;29;5302;-63
2022/07/14 02:28:41;;;;;;;;;;;;;;;23.36;52.44;101316.81;4919353;29;4282;-63
2022/07/14 02:31:13;;;;;;;;;;;;;;;23.27;52.29;101314.25;4902131;29;7176;-63
2022/07/14 02:33:40;;;;;;;;;;;;;;;23.26;52.41;101312.78;4916000;29;4386;-63
2022/07/14 02:36:07;;;;;;;;;;;;;;;23.26;52.50;101312.78;4900137;29;4357;-64
2022/07/14 02:38:34;;;;;;;;;;;;;;;23.25;52.85;101312.06;4917983;29;4199;-63
2022/07/14 02:41:00;;;;;;;;;;;;;;;23.25;52.91;101317.84;4918063;29;4225;-63
2022/07/14 02:43:27;;;;;;;;;;;;;;;23.30;52.72;101321.63;4898253;29;4274;-63
2022/07/14 02:45:53;;;;;;;;;;;;;;;23.27;52.51;101325.81;4901808;29;4312;-63
2022/07/14 02:48:21;;;;;;;;;;;;;;;23.24;52.45;101333.66;4913317;29;4459;-63
2022/07/14 02:50:47;;;;;;;;;;;;;;;23.26;52.86;101335.91;4916262;29;4276;-63
2022/07/14 02:53:13;;;;;;;;;;;;;;;23.26;52.45;101336.66;4905784;29;4225;-63
2022/07/14 02:55:44;;;;;;;;;;;;;;;23.26;52.58;101338.78;4894575;29;4171;-63
2022/07/14 02:58:10;;;;;;;;;;;;;;;23.25;52.67;101340.94;4901977;29;4281;-63
2022/07/14 03:00:37;;;;;;;;;;;;;;;23.24;52.63;101332.94;4897747;29;4347;-63
2022/07/14 03:03:06;;;;;;;;;;;;;;;23.24;52.52;101342.34;4900851;29;5285;-63
2022/07/14 03:05:33;;;;;;;;;;;;;;;23.24;52.77;101332.94;4902207;29;4416;-63
2022/07/14 03:07:59;;;;;;;;;;;;;;;23.22;52.80;101330.69;4917441;29;4297;-63
2022/07/14 03:10:26;;;;;;;;;;;;;;;23.24;52.54;101338.72;4903672;29;4304;-63
2022/07/14 03:12:53;;;;;;;;;;;;;;;23.23;52.56;101340.09;4916647;29;4360;-63
2022/07/14 03:15:19;;;;;;;;;;;;;;;23.24;52.54;101338.72;4906275;29;5426;-63
2022/07/14 03:17:45;;;;;;;;;;;;;;;23.24;52.28;101336.56;4916405;29;4189;-63
2022/07/14 03:20:12;;;;;;;;;;;;;;;23.22;52.42;101330.69;4903597;29;4978;-62
2022/07/14 03:22:39;;;;;;;;;;;;;;;23.23;52.65;101337.97;4906837;29;4225;-63
2022/07/14 03:25:13;;;;;;;;;;;;;;;23.23;52.34;101337.97;4900770;29;4239;-63
2022/07/14 03:27:48;;;;;;;;;;;;;;;23.21;52.41;101347.28;4900462;29;4271;-62
2022/07/14 03:30:14;;;;;;;;;;;;;;;23.22;52.32;101350.91;4896233;29;4281;-63
2022/07/14 03:32:41;;;;;;;;;;;;;;;23.22;52.62;101353.81;4916115;29;4221;-63
2022/07/14 03:35:08;;;;;;;;;;;;;;;23.21;52.48;101363.88;4914079;29;4205;-63
2022/07/14 03:37:36;;;;;;;;;;;;;;;23.20;52.60;101357.38;4906280;29;5604;-63
2022/07/14 03:40:04;;;;;;;;;;;;;;;23.21;52.57;101363.88;4902549;29;4295;-63
2022/07/14 03:42:31;;;;;;;;;;;;;;;23.21;52.67;101370.41;4907829;29;5411;-63
2022/07/14 03:44:58;;;;;;;;;;;;;;;23.20;52.28;101380.47;4899586;29;4156;-63
2022/07/14 03:47:25;;;;;;;;;;;;;;;23.21;52.58;101378.34;4917149;29;4163;-63
2022/07/14 03:49:53;;;;;;;;;;;;;;;23.19;52.34;101373.19;4894874;29;4243;-63
2022/07/14 03:52:19;;;;;;;;;;;;;;;23.20;52.30;101373.94;4899796;29;4237;-63
2022/07/14 03:54:47;;;;;;;;;;;;;;;23.19;52.62;101376.09;4906855;29;4471;-63
2022/07/14 03:57:17;;;;;;;;;;;;;;;23.19;52.36;101376.09;4905625;29;4340;-63
2022/07/14 03:59:45;;;;;;;;;;;;;;;23.20;52.35;101371.06;4899944;29;5290;-62
2022/07/14 04:02:14;;;;;;;;;;;;;;;23.18;52.34;101374.63;4904608;29;4214;-63
2022/07/14 04:04:41;;;;;;;;;;;;;;;23.17;52.40;101381.03;4917445;29;4093;-62
2022/07/14 04:07:07;;;;;;;;;;;;;;;23.17;52.26;101384.66;4914300;29;4266;-63
2022/07/14 04:09:34;;;;;;;;;;;;;;;23.19;52.56;101378.25;4914759;29;4308;-63
2022/07/14 04:12:01;;;;;;;;;;;;;;;23.17;52.19;101378.16;4897859;29;4783;-63
2022/07/14 04:14:28;;;;;;;;;;;;;;;23.17;52.63;101386.81;4913010;29;4213;-63
2022/07/14 04:16:54;;;;;;;;;;;;;;;23.17;52.47;101392.59;4894820;29;4242;-63
2022/07/14 04:19:21;;;;;;;;;;;;;;;23.17;52.29;101395.50;4912830;29;5044;-63
2022/07/14 04:21:48;;;;;;;;;;;;;;;23.17;52.35;101392.59;4886400;29;5360;-63
2022/07/14 04:24:17;;;;;;;;;;;;;;;23.17;52.36;101392.59;4919281;29;4263;-63
2022/07/14 04:26:44;;;;;;;;;;;;;;;23.17;52.29;101398.38;4899871;29;4280;-62
2022/07/14 04:29:12;;;;;;;;;;;;;;;23.17;52.20;101404.91;4900024;29;4372;-62
2022/07/14 04:31:39;;;;;;;;;;;;;;;23.16;52.19;101402.69;4897634;29;4151;-62
2022/07/14 04:34:08;;;;;;;;;;;;;;;23.17;52.36;101393.34;4901827;29;5416;-63
2022/07/14 04:36:35;;;;;;;;;;;;;;;23.17;52.30;101392.59;4901931;29;4150;-63
2022/07/14 04:39:06;;;;;;;;;;;;;;;23.15;52.58;101398.28;4895698;29;4241;-63
2022/07/14 04:41:40;;;;;;;;;;;;;;;23.15;52.47;101392.50;4901028;29;4312;-63
2022/07/14 04:44:06;;;;;;;;;;;;;;;23.16;52.29;101397.63;4912743;29;4278;-62
2022/07/14 04:46:33;;;;;;;;;;;;;;;23.18;52.44;101399.84;4898165;29;4093;-64
2022/07/14 04:52:03;;;;;;;;;;;;;;;23.41;53.98;101399.44;4901946;29;5225;-72
2022/07/14 04:54:50;;;;;;;;;;;;;;;23.65;52.29;101387.38;4899913;29;4263;-75
2022/07/14 04:57:35;;;;;;;;;;;;;;;23.46;51.16;101388.78;4918894;29;4990;-74
2022/07/14 05:00:05;;;;;;;;;;;;;;;23.36;51.36;101391.97;4898456;29;4063;-72
2022/07/14 05:02:33;;;;;;;;;;;;;;;23.28;50.93;101385.84;4915611;29;4068;-72
2022/07/14 05:05:00;;;;;;;;;;;;;;;23.23;50.88;101381.31;4922571;29;4186;-73
2022/07/14 05:07:26;;;;;;;;;;;;;;;23.21;50.94;101387.00;4923020;29;4321;-72
2022/07/14 05:09:56;;;;;;;;;;;;;;;23.20;50.77;101382.59;4920642;29;4390;-72
2022/07/14 05:12:23;;;;;;;;;;;;;;;23.21;50.68;101387.00;4920133;29;4267;-72
2022/07/14 05:14:50;;;;;;;;;;;;;;;23.20;50.45;101394.16;4904686;29;4556;-70
2022/07/14 05:17:18;;;;;;;;;;;;;;;23.21;50.43;101392.78;4921081;29;4187;-70
2022/07/14 05:19:56;;;;;;;;;;;;;;;23.20;50.47;101397.06;4918947;29;5377;-70
2022/07/14 05:22:23;;;;;;;;;;;;;;;23.18;50.46;101399.84;4905234;29;4277;-70
2022/07/14 05:24:49;;;;;;;;;;;;;;;23.16;50.18;101402.69;4902387;29;4728;-69
2022/07/14 05:27:17;;;;;;;;;;;;;;;23.16;50.19;101402.69;4903881;29;4264;-71
2022/07/14 05:29:43;;;;;;;;;;;;;;;23.17;50.08;101399.13;4921236;29;4266;-69
2022/07/14 05:32:10;;;;;;;;;;;;;;;23.16;49.96;101402.69;4897132;29;4767;-68
2022/07/14 05:34:42;;;;;;;;;;;;;;;23.57;55.43;101401.50;4903115;29;4532;-60
2022/07/14 05:37:10;;;;;;;;;;;;;;;23.69;52.15;101410.69;4906740;29;4177;-60
2022/07/14 05:39:37;;;;;;;;;;;;;;;23.76;49.89;101412.44;4902771;29;4357;-60
2022/07/14 05:42:03;;;;;;;;;;;;;;;23.79;48.84;101419.78;4922220;29;5334;-60
2022/07/14 05:44:30;;;;;;;;;;;;;;;23.81;48.49;101419.88;4921601;29;5310;-60
2022/07/14 05:46:56;;;;;;;;;;;;;;;23.52;48.15;101417.91;4903441;29;4777;-63
2022/07/14 05:49:23;;;;;;;;;;;;;;;23.38;48.21;101418.06;4925178;29;4305;-61
2022/07/14 05:51:50;;;;;;;;;;;;;;;23.73;47.55;101422.44;4920576;29;5300;-65
2022/07/14 05:54:17;;;;;;;;;;;;;;;23.73;46.61;101422.44;4908932;29;4379;-66
2022/07/14 05:56:44;;;;;;;;;;;;;;;23.80;46.71;101415.50;4911964;29;5448;-65
2022/07/14 05:59:10;;;;;;;;;;;;;;;23.75;46.54;101416.72;4921220;29;4030;-68
2022/07/14 06:01:57;;;;;;;;;;;;;;;23.69;46.65;101416.47;4906539;29;4170;-64
2022/07/14 06:04:23;;;;;;;;;;;;;;;23.80;46.58;101409.72;4907241;29;4252;-64
2022/07/14 06:06:51;;;;;;;;;;;;;;;23.85;46.30;101421.47;4904536;29;4226;-63
2022/07/14 06:09:18;;;;;;;;;;;;;;;23.79;45.90;101419.78;4915891;29;5579;-63
2022/07/14 06:11:45;;;;;;;;;;;;;;;24.14;45.48;101426.97;4911055;29;4455;-60
2022/07/14 06:14:13;;;;;;;;;;;;;;;24.03;45.48;101419.31;4921576;29;4245;-61
2022/07/14 06:16:40;;;;;;;;;;;;;;;23.46;46.28;101422.72;4904625;29;4307;-62
2022/07/14 06:19:07;;;;;;;;;;;;;;;23.31;46.90;101418.47;4921680;29;5170;-60
2022/07/14 06:21:41;;;;;;;;;;;;;;;23.54;46.05;101412.22;4921025;29;4107;-58
2022/07/14 06:24:09;;;;;;;;;;;;;;;23.61;46.14;101416.84;4920929;29;5152;-60
2022/07/14 06:26:35;;;;;;;;;;;;;;;23.67;45.87;101412.75;4902602;29;4490;-60
2022/07/14 06:29:02;;;;;;;;;;;;;;;23.67;46.07;101415.66;4917102;29;5309;-61
2022/07/14 06:31:33;;;;;;;;;;;;;;;24.00;45.63;101415.56;4900135;29;4519;-61
2022/07/14 06:34:02;;;;;;;;;;;;;;;24.02;44.90;101417.81;4903848;29;4370;-60
2022/07/14 06:36:43;;;;;;;;;;;;;;;23.87;45.70;101416.50;4920362;29;4302;-63
2022/07/14 06:39:09;;;;;;;;;;;;;;;24.15;45.07;101421.94;4916964;29;5511;-62
2022/07/14 06:41:36;;;;;;;;;;;;;;;23.60;45.92;101414.66;4901745;29;5823;-59
2022/07/14 06:44:04;;;;;;;;;;;;;;;23.67;45.40;101416.38;4897262;29;4511;-59
2022/07/14 06:46:39;;;;;;;;;;;;;;;23.66;45.56;101419.94;4905825;29;4295;-62
2022/07/14 06:49:05;;;;;;;;;;;;;;;23.99;44.79;101413.38;4900999;29;5749;-62
2022/07/14 06:51:32;;;;;;;;;;;;;;;23.86;44.65;101422.94;4909096;29;4284;-62
2022/07/14 06:53:58;;;;;;;;;;;;;;;23.63;45.08;101419.09;4915378;29;5451;-68
2022/07/14 06:56:24;;;;;;;;;;;;;;;23.45;45.45;101424.13;4917946;29;4055;-66
2022/07/14 06:58:51;;;;;;;;;;;;;;;23.58;45.81;101423.22;4918411;29;4380;-67
2022/07/14 07:01:18;;;;;;;;;;;;;;;23.62;45.30;101421.25;4922413;29;4091;-66
2022/07/14 07:03:44;;;;;;;;;;;;;;;23.61;45.39;101416.13;4921283;29;5412;-65
2022/07/14 07:08:55;;;;;;;;;;;;;;;23.47;45.23;101415.53;4914980;29;4181;-62
2022/07/14 07:11:22;;;;;;;;;;;;;;;23.38;45.15;101414.44;4917697;29;4245;-62
2022/07/14 07:13:48;;;;;;;;;;;;;;;23.30;44.99;101414.84;4912463;29;4169;-66
2022/07/14 07:16:15;;;;;;;;;;;;;;;23.31;44.80;101413.44;4914631;29;4290;-65
2022/07/14 07:18:41;;;;;;;;;;;;;;;23.22;44.46;101411.59;4916782;29;4174;-66
2022/07/14 07:21:10;;;;;;;;;;;;;;;23.06;44.86;101399.34;4915172;29;4194;-66
2022/07/14 07:23:41;;;;;;;;;;;;;;;22.94;44.82;101406.03;4918125;29;4225;-66
2022/07/14 07:26:08;;;;;;;;;;;;;;;22.91;44.43;101400.84;4918089;29;4200;-66
2022/07/14 07:28:34;;;;;;;;;;;;;;;22.93;44.56;101384.34;4918308;29;4272;-66
2022/07/14 07:31:00;;;;;;;;;;;;;;;22.92;44.07;101390.75;4913071;29;5431;-66
2022/07/14 07:33:27;;;;;;;;;;;;;;;22.80;43.88;101385.94;4916201;29;5233;-66
2022/07/14 07:35:54;;;;;;;;;;;;;;;22.84;44.69;101390.38;4914664;29;4213;-64
2022/07/14 07:38:20;;;;;;;;;;;;;;;22.83;44.53;101381.00;4917468;29;4288;-64
2022/07/14 07:40:49;;;;;;;;;;;;;;;22.83;44.18;101369.44;4915691;29;5526;-65
2022/07/14 07:43:16;;;;;;;;;;;;;;;22.83;43.61;101383.88;4918499;29;4495;-63
2022/07/14 07:45:42;;;;;;;;;;;;;;;22.79;43.91;101366.34;4915398;29;4031;-62
2022/07/14 07:48:09;;;;;;;;;;;;;;;22.78;44.01;101373.56;4913676;29;4220;-61
2022/07/14 07:50:35;;;;;;;;;;;;;;;22.86;44.38;101365.25;4917608;29;4150;-61
2022/07/14 07:53:01;;;;;;;;;;;;;;;22.86;44.44;101364.50;4914633;29;5520;-61
2022/07/14 07:55:28;;;;;;;;;;;;;;;22.94;44.69;101354.03;4912723;29;4476;-66
2022/07/14 07:57:54;;;;;;;;;;;;;;;23.25;44.34;101364.06;4910791;29;4185;-67
2022/07/14 08:00:21;;;;;;;;;;;;;;;23.46;44.08;101365.66;4919592;29;4225;-67
2022/07/14 08:02:48;;;;;;;;;;;;;;;23.55;44.10;101361.69;4919042;29;4200;-68
2022/07/14 08:05:16;;;;;;;;;;;;;;;23.67;43.96;101360.72;4920085;29;4182;-69
2022/07/14 08:08:03;;;;;;;;;;;;;;;23.75;43.84;101361.78;4918656;29;4085;-65
2022/07/14 08:10:29;;;;;;;;;;;;;;;23.78;43.52;101360.47;4919131;29;4703;-65
2022/07/14 08:12:55;;;;;;;;;;;;;;;23.82;43.62;101354.88;4917666;29;4190;-63
2022/07/14 08:15:22;;;;;;;;;;;;;;;23.82;43.82;101357.75;4917824;29;4258;-64
2022/07/14 08:17:48;;;;;;;;;;;;;;;23.89;43.60;101357.97;4918628;29;5340;-66
2022/07/14 08:20:15;;;;;;;;;;;;;;;23.66;44.11;101354.16;4919254;29;4156;-66
2022/07/14 08:22:41;;;;;;;;;;;;;;;23.79;43.62;101367.75;4916906;29;4249;-64
2022/07/14 08:25:08;;;;;;;;;;;;;;;23.57;43.83;101358.13;4913958;29;4668;-63
2022/07/14 08:27:37;;;;;;;;;;;;;;;22.97;42.81;101352.72;4917718;29;4263;-61
2022/07/14 08:30:04;;;;;;;;;;;;;;;22.65;43.61;101345.53;4914153;29;4289;-60
2022/07/14 08:32:37;;;;;;;;;;;;;;;23.10;43.13;101347.53;4916505;29;4217;-59
2022/07/14 08:35:04;;;;;;;;;;;;;;;23.26;42.96;101335.91;4919148;29;4283;-60
2022/07/14 08:37:30;;;;;;;;;;;;;;;23.27;43.22;101337.38;4919332;29;4250;-60
2022/07/14 08:40:03;;;;;;;;;;;;;;;23.36;43.31;101334.16;4921526;29;4325;-60
2022/07/14 08:42:29;;;;;;;;;;;;;;;23.25;43.43;101335.16;4919084;29;4097;-61
2022/07/14 08:44:56;;;;;;;;;;;;;;;23.16;43.66;101324.69;4919543;29;4419;-64
2022/07/14 08:47:22;;;;;;;;;;;;;;;23.59;43.52;101326.41;4922447;29;4139;-61
2022/07/14 08:49:48;;;;;;;;;;;;;;;23.78;43.58;101319.25;4914569;29;4012;-61
2022/07/14 08:52:31;;;;;;;;;;;;;;;24.10;42.59;101319.78;4897422;29;4151;-62
2022/07/14 08:54:57;;;;;;;;;;;;;;;24.18;42.23;101325.84;4919481;29;5364;-61
2022/07/14 08:57:24;;;;;;;;;;;;;;;24.24;42.28;101320.31;4916845;29;4249;-62
2022/07/14 08:59:50;;;;;;;;;;;;;;;24.26;42.20;101310.97;4922803;29;5259;-63
2022/07/14 09:02:17;;;;;;;;;;;;;;;24.28;42.04;101301.59;4923159;29;4291;-64
2022/07/14 09:04:44;;;;;;;;;;;;;;;24.12;42.19;101299.59;4922704;29;4232;-60
2022/07/14 09:07:12;;;;;;;;;;;;;;;24.24;42.26;101302.94;4917935;29;4280;-59
2022/07/14 09:09:38;;;;;;;;;;;;;;;24.09;42.15;101312.50;4920145;29;5363;-60
2022/07/14 09:12:05;;;;;;;;;;;;;;;24.15;41.91;101309.84;4920385;29;4556;-60
2022/07/14 09:17:20;;;;;;;;;;;;;;;24.43;41.96;101310.16;4922345;29;4492;-60
2022/07/14 09:20:12;;;;;;;;;;;;;;;24.29;42.45;101311.78;4920363;29;4161;-59
2022/07/14 09:22:38;;;;;;;;;;;;;;;24.43;42.50;101295.69;4923291;29;4080;-62
2022/07/14 09:25:06;;;;;;;;;;;;;;;24.24;41.87;101291.38;4919038;29;4233;-61
2022/07/14 09:27:33;;;;;;;;;;;;;;;23.76;42.24;101279.44;4918926;29;4182;-59
2022/07/14 09:29:59;;;;;;;;;;;;;;;23.42;42.33;101291.06;4918180;29;4272;-60
2022/07/14 09:32:41;;;;;;;;;;;;;;;23.44;42.54;101287.53;4916264;29;4128;-59
2022/07/14 09:35:07;;;;;;;;;;;;;;;23.68;43.32;101276.19;4921079;29;4296;-63
2022/07/14 09:37:34;;;;;;;;;;;;;;;23.92;43.08;101281.47;4919939;29;4246;-64
2022/07/14 09:40:00;;;;;;;;;;;;;;;23.91;43.11;101274.19;4912410;29;4355;-63
2022/07/14 09:42:46;;;;;;;;;;;;;;;24.01;42.77;101269.53;4919262;29;4531;-62
2022/07/14 09:45:14;;;;;;;;;;;;;;;23.87;43.05;101268.25;4918426;29;5290;-61
2022/07/14 09:47:53;;;;;;;;;;;;;;;23.72;43.39;101264.03;4921277;29;5276;-61
2022/07/14 09:50:30;;;;;;;;;;;;;;;23.93;43.08;101259.81;4921616;29;5283;-62
2022/07/14 09:52:57;;;;;;;;;;;;;;;24.03;43.83;101260.94;4918872;29;5468;-63
2022/07/14 09:55:23;;;;;;;;;;;;;;;23.88;43.51;101270.47;4921446;29;4102;-62
2022/07/14 09:57:51;;;;;;;;;;;;;;;24.04;43.32;101258.78;4920446;29;4280;-63
2022/07/14 10:00:19;;;;;;;;;;;;;;;23.89;43.27;101253.88;4904760;29;4263;-61
2022/07/14 10:02:45;;;;;;;;;;;;;;;23.94;43.69;101255.53;4921096;29;4183;-63
2022/07/14 10:05:12;;;;;;;;;;;;;;;23.99;43.38;101248.47;4922473;29;4265;-62
2022/07/14 10:07:44;;;;;;;;;;;;;;;23.99;43.69;101251.38;4904639;29;4331;-62
2022/07/14 10:10:15;;;;;;;;;;;;;;;23.75;44.21;101246.13;4899947;29;4232;-61
2022/07/14 10:12:41;;;;;;;;;;;;;;;23.90;43.79;101244.53;4904079;29;4166;-62
2022/07/14 10:15:10;;;;;;;;;;;;;;;23.90;44.00;101244.53;4903422;29;4343;-60
2022/07/14 10:17:38;;;;;;;;;;;;;;;23.95;43.88;101257.72;4917293;29;4088;-65
2022/07/14 10:20:06;;;;;;;;;;;;;;;23.93;43.92;101257.66;4919148;29;4126;-61
2022/07/14 10:22:32;;;;;;;;;;;;;;;23.99;44.14;101265.84;4919318;29;4077;-63
2022/07/14 10:24:58;;;;;;;;;;;;;;;23.81;44.42;101255.03;4915824;29;4104;-63
2022/07/14 10:27:27;;;;;;;;;;;;;;;23.98;44.07;101256.41;4920038;29;4215;-67
2022/07/14 10:29:53;;;;;;;;;;;;;;;24.06;43.75;101255.22;4919067;29;4241;-61
2022/07/14 10:32:38;;;;;;;;;;;;;;;24.03;43.92;101254.41;4918591;29;4386;-62
2022/07/14 10:35:10;;;;;;;;;;;;;;;24.06;44.20;101258.88;4913739;29;4096;-63
2022/07/14 10:37:46;;;;;;;;;;;;;;;24.09;43.62;101257.53;4910391;29;4278;-63
2022/07/14 10:40:19;;;;;;;;;;;;;;;24.06;44.12;101255.22;4915924;29;5266;-60
2022/07/14 10:42:48;;;;;;;;;;;;;;;24.07;44.50;101251.66;4895157;29;4108;-59
2022/07/14 10:45:14;;;;;;;;;;;;;;;24.10;44.53;101250.34;4919114;29;4130;-61
2022/07/14 10:47:45;;;;;;;;;;;;;;;24.11;44.55;101245.28;4919181;29;4315;-61
2022/07/14 10:50:12;;;;;;;;;;;;;;;24.15;44.74;101239.66;4904330;29;4115;-62
2022/07/14 10:52:54;;;;;;;;;;;;;;;24.10;44.76;101229.31;4901718;29;3982;-65
2022/07/14 10:55:22;;;;;;;;;;;;;;;24.15;45.28;101222.31;4919761;29;5556;-62
2022/07/14 10:58:06;;;;;;;;;;;;;;;24.14;45.14;101229.47;4920039;29;4133;-60
2022/07/14 11:03:28;;;;;;;;;;;;;;;24.11;45.59;101222.88;4915906;29;4416;-61
2022/07/14 11:06:03;;;;;;;;;;;;;;;24.08;46.65;101215.53;4918697;29;4589;-63
2022/07/14 11:09:16;;;;;;;;;;;;;;;24.13;45.72;101225.84;4919297;29;4696;-61
2022/07/14 11:12:05;;;;;;;;;;;;;;;24.15;46.16;101217.25;4892047;29;4175;-64
2022/07/14 11:14:32;;;;;;;;;;;;;;;24.11;45.94;101217.09;4920341;29;4309;-60
2022/07/14 11:16:59;;;;;;;;;;;;;;;24.13;45.90;101213.53;4916068;29;4056;-60
2022/07/14 11:19:30;;;;;;;;;;;;;;;24.18;46.05;101204.34;4918262;29;4149;-66
2022/07/14 11:22:13;;;;;;;;;;;;;;;24.18;46.10;101210.13;4916466;29;4265;-61
2022/07/14 11:24:46;;;;;;;;;;;;;;;24.22;45.73;101210.28;4914701;29;3973;-66
2022/07/14 11:27:22;;;;;;;;;;;;;;;24.21;45.71;101200.13;4915526;29;4330;-61
2022/07/14 11:29:48;;;;;;;;;;;;;;;24.29;45.54;101198.91;4913295;29;4207;-66
2022/07/14 11:32:28;;;;;;;;;;;;;;;24.22;45.71;101198.69;4905771;29;4096;-67
2022/07/14 11:38:12;;;;;;;;;;;;;;;24.20;46.29;101189.19;4909784;29;4030;-64
2022/07/14 11:40:39;;;;;;;;;;;;;;;24.22;46.18;101181.34;4874241;29;4901;-67
2022/07/14 11:43:24;;;;;;;;;;;;;;;24.24;45.84;101175.63;4919390;29;4161;-59
2022/07/14 11:45:54;;;;;;;;;;;;;;;24.21;46.14;101174.06;4918118;29;4301;-63
2022/07/14 11:48:21;;;;;;;;;;;;;;;24.06;46.32;101172.06;4914101;29;4429;-62
2022/07/14 11:50:48;;;;;;;;;;;;;;;23.93;46.56;101167.25;4917953;29;4510;-66
2022/07/14 11:53:15;;;;;;;;;;;;;;;23.86;46.66;101168.44;4896863;29;4021;-66
2022/07/14 11:55:41;;;;;;;;;;;;;;;23.86;46.51;101156.88;4914324;29;4238;-66
2022/07/14 11:58:08;;;;;;;;;;;;;;;23.82;46.75;101137.97;4900974;29;4098;-66
2022/07/14 12:00:35;;;;;;;;;;;;;;;23.81;46.84;101145.16;4902747;29;4357;-66
2022/07/14 12:03:03;;;;;;;;;;;;;;;23.79;46.73;101150.13;4920588;29;4539;-66
2022/07/14 12:05:31;;;;;;;;;;;;;;;23.77;46.85;101153.66;4918358;29;4350;-66
2022/07/14 12:07:59;;;;;;;;;;;;;;;23.77;46.98;101150.78;4903025;29;4203;-66
2022/07/14 12:10:36;;;;;;;;;;;;;;;23.75;46.93;101153.59;4902134;29;4298;-64
2022/07/14 12:13:03;;;;;;;;;;;;;;;23.74;46.92;101149.22;4919505;29;5707;-65
2022/07/14 12:15:29;;;;;;;;;;;;;;;24.15;46.28;101144.91;4919365;29;4243;-66
2022/07/14 12:17:56;;;;;;;;;;;;;;;24.34;45.88;101128.19;4924111;29;4170;-65
2022/07/14 12:20:22;;;;;;;;;;;;;;;24.44;45.63;101134.31;4925520;29;4390;-65
2022/07/14 12:22:53;;;;;;;;;;;;;;;24.51;45.47;101129.50;4920333;29;4088;-63
2022/07/14 12:25:32;;;;;;;;;;;;;;;24.54;45.53;101128.91;4923449;29;4147;-66
2022/07/14 12:27:59;;;;;;;;;;;;;;;24.59;45.27;101129.78;4921239;29;4317;-63
2022/07/14 12:30:44;;;;;;;;;;;;;;;24.55;45.42;101129.63;4926573;29;4128;-66
2022/07/14 12:33:11;;;;;;;;;;;;;;;24.52;45.85;101125.19;4929485;29;4261;-65
2022/07/14 12:35:39;;;;;;;;;;;;;;;24.48;45.60;101107.69;4922841;29;4150;-65
2022/07/14 12:38:05;;;;;;;;;;;;;;;24.51;45.86;101118.69;4910245;29;6211;-64
2022/07/14 12:40:46;;;;;;;;;;;;;;;24.73;45.91;101104.19;4923029;29;5925;-67
2022/07/14 12:43:19;;;;;;;;;;;;;;;24.70;45.57;101108.44;4918138;29;4060;-65
2022/07/14 12:45:59;;;;;;;;;;;;;;;24.80;45.88;101102.22;4923040;29;4002;-67
2022/07/14 12:48:27;;;;;;;;;;;;;;;24.82;45.23;101108.06;4920270;29;4245;-63
2022/07/14 12:50:53;;;;;;;;;;;;;;;25.03;45.73;101104.38;4922941;29;5501;-70
2022/07/14 12:53:19;;;;;;;;;;;;;;;25.08;45.23;101097.31;4922013;29;4160;-72
2022/07/14 12:55:46;;;;;;;;;;;;;;;24.88;45.57;101093.78;4921013;29;5110;-72
2022/07/14 12:58:13;;;;;;;;;;;;;;;24.80;45.98;101096.41;4921694;29;4247;-72
2022/07/14 13:00:39;;;;;;;;;;;;;;;24.70;46.01;101099.75;4927281;29;4031;-67
2022/07/14 13:03:10;;;;;;;;;;;;;;;24.72;46.21;101101.97;4917940;29;4202;-65
2022/07/14 13:05:37;;;;;;;;;;;;;;;24.73;46.03;101091.84;4924515;29;4236;-68
2022/07/14 13:08:22;;;;;;;;;;;;;;;24.71;45.98;101097.56;4921270;29;4177;-74
2022/07/14 13:10:55;;;;;;;;;;;;;;;24.67;46.05;101096.03;4919392;29;4270;-71
2022/07/14 13:13:38;;;;;;;;;;;;;;;24.92;45.61;101082.31;4924564;29;4439;-70
2022/07/14 13:16:13;;;;;;;;;;;;;;;24.96;45.39;101091.13;4923379;29;4038;-70